CW3175 Weather Reports


time (UTC)temp
F
wind
direction
speed
knots
gust
knots
rain 1hr
in
rain 24hr
in
rain mn
in
humidity
%
barometer
mb
20150130151855 26 332 2.6 7.8 0.00 0.00 0.00 45 1032.7
20150130150352 25 311 2.6 7.0 0.00 0.00 0.00 47 1032.7
20150130144852 24 340 3.5 11.3 0.00 0.00 0.00 51 1032.7
20150130143350 24 322 2.6 7.8 0.00 0.00 0.00 53 1032.6
20150130141847 23 321 3.5 10.4 0.00 0.00 0.00 54 1032.8
20150130140344 23 284 2.6 8.7 0.00 0.00 0.00 54 1032.7
20150130134846 23 317 1.7 8.7 0.00 0.00 0.00 55 1032.5
20150130133345 23 32 2.6 9.6 0.00 0.00 0.00 54 1032.2
20150130131841 23 340 2.6 11.3 0.00 0.00 0.00 54 1032.1
20150130130335 23 333 4.3 8.7 0.00 0.00 0.00 53 1032.1
20150130124836 24 319 2.6 12.2 0.00 0.00 0.00 52 1031.9
20150130123331 24 320 3.5 13.0 0.00 0.00 0.00 50 1031.7
20150130121829 24 318 4.3 13.9 0.00 0.00 0.00 49 1031.5
20150130120329 24 16 3.5 11.3 0.00 0.00 0.00 48 1031.2
20150130114825 25 327 3.5 11.3 0.00 0.00 0.00 48 1030.8
20150130113323 25 346 3.5 11.3 0.00 0.00 0.00 48 1030.6
20150130111820 25 322 3.5 9.6 0.00 0.00 0.00 48 1030.4
20150130110319 25 351 2.6 11.3 0.00 0.00 0.00 47 1030.1
20150130104821 25 351 4.3 11.3 0.00 0.00 0.00 45 1029.9
20150130103321 26 320 4.3 13.0 0.00 0.00 0.00 45 1029.8
20150130101809 26 351 4.3 11.3 0.00 0.00 0.00 44 1029.7
20150130100308 26 345 4.3 13.9 0.00 0.00 0.00 45 1029.5
20150130094809 26 351 3.5 10.4 0.00 0.00 0.00 46 1029.3
20150130093304 26 15 7.0 16.5 0.00 0.01 0.00 45 1029.1
20150130091800 27 292 6.1 14.8 0.00 0.01 0.00 44 1028.9
20150130090300 27 15 8.7 20.0 0.00 0.02 0.00 43 1028.7
20150130084757 28 0 7.8 19.1 0.00 0.03 0.00 44 1028.6
20150130083257 28 0 7.8 19.1 0.00 0.04 0.00 46 1028.4
20150130081758 28 53 8.7 19.1 0.00 0.04 0.00 47 1028.3
20150130080251 28 320 7.8 19.1 0.00 0.04 0.00 47 1028.0
20150130074750 29 351 8.7 18.2 0.00 0.04 0.00 51 1027.6
20150130073248 29 351 7.0 17.4 0.00 0.04 0.00 54 1027.2
20150130071748 29 336 7.8 15.6 0.00 0.04 0.00 56 1027.1
20150130070250 29 351 9.6 18.2 0.00 0.04 0.00 58 1026.9
20150130064750 30 0 9.6 16.5 0.00 0.04 0.00 63 1026.5
20150130063248 30 336 8.7 17.4 0.00 0.04 0.00 64 1026.1
20150130061748 31 13 7.0 18.2 0.00 0.04 0.00 64 1025.8
20150130060247 31 15 6.1 13.9 0.00 0.04 0.00 63 1025.6
20150130054748 31 351 7.0 16.5 0.00 0.04 0.00 62 1025.5
20150130053247 32 0 7.0 14.8 0.00 0.04 0.00 63 1025.2
20150130051747 33 0 8.7 15.6 0.00 0.04 0.00 62 1024.8
20150130050247 34 38 7.8 16.5 0.00 0.04 0.00 55 1024.5
20150130044746 35 346 7.8 16.5 0.00 0.04 0.00 50 1024.1
20150130043246 35 299 5.2 14.8 0.00 0.04 0.00 49 1023.7
20150130041744 35 344 6.1 19.1 0.00 0.04 0.00 47 1023.5
20150130040245 35 333 7.0 19.1 0.00 0.04 0.00 46 1023.2
20150130034750 36 345 6.1 15.6 0.00 0.04 0.00 48 1023.2
20150130033246 36 327 3.5 14.8 0.00 0.04 0.00 51 1022.8
20150130031737 36 310 5.2 13.9 0.00 0.04 0.00 51 1022.7
20150130030237 36 345 4.3 14.8 0.00 0.04 0.00 52 1022.7
20150130024732 36 296 6.1 16.5 0.00 0.04 0.00 52 1022.3
20150130023230 36 319 4.3 13.0 0.00 0.04 0.00 55 1022.1
20150130021729 36 317 2.6 11.3 0.00 0.04 0.00 54 1021.9
20150130020227 36 321 4.3 13.9 0.00 0.04 0.00 51 1021.7
20150130014725 36 335 6.1 17.4 0.00 0.04 0.00 51 1021.6
20150130013223 36 279 6.1 15.6 0.00 0.04 0.00 52 1021.5
20150130011720 36 275 3.5 14.8 0.00 0.04 0.00 59 1021.3
20150130010219 36 322 4.3 13.9 0.00 0.04 0.00 59 1021.1
20150130004721 36 351 5.2 16.5 0.00 0.04 0.00 60 1021.0
20150130003213 36 305 4.3 16.5 0.00 0.04 0.00 61 1020.7
20150130001713 36 337 4.3 13.9 0.00 0.04 0.00 62 1020.4
20150130000208 36 334 6.1 15.6 0.00 0.04 0.00 61 1020.0
20150129234707 36 313 5.2 13.9 0.00 0.04 0.04 64 1019.8
20150129233205 36 314 3.5 13.0 0.00 0.04 0.04 66 1019.4
20150129231703 36 317 4.3 15.6 0.00 0.04 0.04 67 1018.8
20150129230201 36 328 3.5 11.3 0.00 0.04 0.04 69 1018.3
20150129224700 36 293 3.5 13.0 0.00 0.04 0.04 69 1017.8
20150129223155 36 328 4.3 12.2 0.00 0.04 0.04 69 1017.6
20150129221653 36 296 3.5 13.0 0.00 0.04 0.04 69 1017.2
20150129220146 36 323 4.3 14.8 0.00 0.04 0.04 71 1016.9
20150129214640 36 322 4.3 15.6 0.00 0.04 0.04 71 1016.6
20150129213138 36 279 3.5 13.9 0.00 0.04 0.04 71 1016.2
20150129211636 35 298 5.2 14.8 0.00 0.04 0.04 71 1016.0
20150129210134 35 315 5.2 13.9 0.00 0.04 0.04 71 1015.6
20150129204632 35 277 5.2 17.4 0.00 0.04 0.04 71 1015.2
20150129203135 35 301 5.2 15.6 0.00 0.04 0.04 71 1015.0
20150129201633 35 326 5.2 13.9 0.00 0.04 0.04 71 1014.6
20150129200133 35 336 2.6 10.4 0.00 0.04 0.04 71 1014.3
20150129194634 35 331 5.2 16.5 0.00 0.04 0.04 70 1014.1
20150129193130 35 319 5.2 14.8 0.00 0.04 0.04 70 1013.6
20150129191632 35 296 5.2 15.6 0.00 0.04 0.04 69 1013.4
20150129190132 35 279 4.3 13.9 0.00 0.04 0.04 70 1013.1
20150129184621 35 311 6.1 17.4 0.00 0.04 0.04 69 1012.9
20150129183118 35 306 6.1 15.6 0.00 0.04 0.04 71 1012.7
20150129181618 35 320 6.1 13.9 0.00 0.04 0.04 70 1012.4
20150129180117 35 331 4.3 15.6 0.00 0.04 0.04 72 1012.3
20150129174616 35 295 4.3 13.0 0.00 0.04 0.04 73 1012.1
20150129173114 35 346 7.0 17.4 0.00 0.04 0.04 73 1012.0
20150129171612 35 298 5.2 13.9 0.00 0.04 0.04 73 1011.7
20150129170109 35 270 5.2 18.2 0.00 0.04 0.04 73 1011.4
20150129164607 35 294 5.2 14.8 0.00 0.04 0.04 76 1010.8
20150129163106 35 287 4.3 14.8 0.00 0.04 0.04 77 1010.4
20150129161607 35 315 5.2 13.0 0.00 0.04 0.04 79 1010.3
20150129160101 35 351 5.2 15.6 0.00 0.04 0.04 82 1009.7
20150129154558 35 315 5.2 14.8 0.00 0.04 0.04 83 1009.3
20150129153056 35 333 2.6 11.3 0.00 0.04 0.04 85 1009.1